Time;durP1;ratioP1;P1;durP2;ratioP2;P2;SDS_P1;SDS_P2;PMS_P1;PMS_P2;Temp;Humidity;BMP_temperature;BMP_pressure;BME280_temperature;BME280_humidity;BME280_pressure;Samples;Min_cycle;Max_cycle;Signal;HPM_P1;HPM_P2
2021/06/26 00:00:09;;;;;;;32.58;25.65;;;;;;;13.98;92.46;101716.00;1048707;28;20053;-84
2021/06/26 00:00:40;;;;;;;29.60;25.83;;;;;;;13.95;92.58;101705.53;1052281;28;20066;-85
2021/06/26 00:01:12;;;;;;;32.58;25.58;;;;;;;13.90;92.93;101707.22;1053207;28;20500;-84
2021/06/26 00:01:44;;;;;;;29.77;26.13;;;;;;;13.92;92.38;101700.31;1051473;28;20058;-85
2021/06/26 00:02:16;;;;;;;24.88;22.17;;;;;;;13.96;92.53;101705.59;1048212;28;20050;-85
2021/06/26 00:02:47;;;;;;;33.42;25.45;;;;;;;13.95;92.43;101715.94;1046671;28;20429;-85
2021/06/26 00:03:21;;;;;;;27.67;23.33;;;;;;;13.94;92.34;101709.00;1048207;28;20071;-84
2021/06/26 00:03:52;;;;;;;26.95;24.02;;;;;;;13.96;92.66;101715.13;1044213;28;20145;-85
2021/06/26 00:04:24;;;;;;;33.08;25.00;;;;;;;13.91;92.54;101711.56;1042822;28;20045;-85
2021/06/26 00:04:55;;;;;;;24.20;21.35;;;;;;;13.91;91.92;101715.06;1044199;28;20504;-85
2021/06/26 00:05:27;;;;;;;23.45;20.50;;;;;;;13.88;92.63;101712.38;1040388;28;20045;-85
2021/06/26 00:05:58;;;;;;;27.08;22.58;;;;;;;13.87;92.59;101705.44;1044559;28;20053;-84
2021/06/26 00:06:30;;;;;;;22.33;19.52;;;;;;;13.84;92.06;101705.41;1048333;28;20044;-85
2021/06/26 00:07:02;;;;;;;31.30;23.00;;;;;;;13.85;92.31;101712.34;1048755;28;20048;-85
2021/06/26 00:07:33;;;;;;;23.45;20.25;;;;;;;13.82;92.53;101714.03;1052335;28;20066;-85
2021/06/26 00:08:05;;;;;;;26.95;21.98;;;;;;;13.82;92.48;101711.44;1048216;28;20054;-85
2021/06/26 00:08:36;;;;;;;26.85;21.92;;;;;;;13.85;92.43;101714.09;1044003;28;20056;-85
2021/06/26 00:09:08;;;;;;;23.50;20.42;;;;;;;13.82;92.30;101709.69;1044563;28;20045;-85
2021/06/26 00:09:39;;;;;;;32.03;22.77;;;;;;;13.87;92.06;101715.84;1044277;28;20126;-85
2021/06/26 00:10:12;;;;;;;25.90;22.55;;;;;;;13.85;92.45;101709.75;1044614;28;20045;-85
2021/06/26 00:10:45;;;;;;;26.30;21.88;;;;;;;13.77;92.51;101706.16;1044067;28;20506;-85
2021/06/26 00:11:16;;;;;;;25.90;23.20;;;;;;;13.84;91.50;101713.22;1044937;28;20495;-85
2021/06/26 00:11:49;;;;;;;23.30;20.77;;;;;;;13.82;91.25;101714.91;1048075;28;20049;-86
2021/06/26 00:12:21;;;;;;;22.95;19.48;;;;;;;13.85;91.87;101717.56;1049086;28;20511;-86
2021/06/26 00:12:52;;;;;;;24.17;20.08;;;;;;;13.88;91.75;101715.00;1048820;28;20048;-86
2021/06/26 00:13:25;;;;;;;23.60;19.83;;;;;;;13.86;92.32;101723.63;1052381;28;20051;-86
2021/06/26 00:13:58;;;;;;;25.13;20.63;;;;;;;13.82;92.02;101717.50;1048036;28;20557;-86
2021/06/26 00:14:29;;;;;;;26.30;21.83;;;;;;;13.81;92.26;101718.34;1044955;28;20437;-85
2021/06/26 00:15:01;;;;;;;23.80;20.30;;;;;;;13.84;91.67;101720.13;1048141;28;20049;-85
2021/06/26 00:15:33;;;;;;;25.42;20.42;;;;;;;13.78;91.98;101718.28;1044322;28;20056;-84
2021/06/26 00:16:04;;;;;;;25.95;22.02;;;;;;;13.82;92.20;101722.69;1048639;28;20447;-84
2021/06/26 00:16:37;;;;;;;24.70;20.65;;;;;;;13.81;91.85;101709.69;1048178;28;20048;-84
2021/06/26 00:17:08;;;;;;;24.67;19.83;;;;;;;13.84;91.91;101727.91;1048630;28;20131;-85
2021/06/26 00:17:40;;;;;;;24.98;20.48;;;;;;;13.85;92.04;101722.75;1048271;28;20127;-85
2021/06/26 00:18:12;;;;;;;24.75;20.52;;;;;;;13.81;91.43;101715.75;1044445;28;20055;-85
2021/06/26 00:18:43;;;;;;;26.00;21.42;;;;;;;13.87;91.29;101720.19;1043970;28;20523;-85
2021/06/26 00:19:15;;;;;;;24.90;20.55;;;;;;;13.86;91.21;101711.50;1044616;28;20049;-85
2021/06/26 00:19:46;;;;;;;24.30;20.75;;;;;;;13.87;91.88;101715.84;1048052;28;20057;-85
2021/06/26 00:20:18;;;;;;;27.60;23.60;;;;;;;13.89;91.94;101718.47;1044285;28;20053;-85
2021/06/26 00:20:49;;;;;;;27.38;22.92;;;;;;;13.85;91.67;101716.69;1044638;28;20055;-85
2021/06/26 00:21:21;;;;;;;27.88;24.88;;;;;;;13.77;92.52;101712.22;1048091;28;20060;-85
2021/06/26 00:21:53;;;;;;;28.67;24.30;;;;;;;13.74;92.94;101713.91;1040490;28;20612;-85
2021/06/26 00:22:24;;;;;;;26.83;23.90;;;;;;;13.73;93.24;101714.78;1044567;28;20481;-85
2021/06/26 00:22:56;;;;;;;28.70;23.65;;;;;;;13.72;92.88;101710.41;1048239;28;20048;-85
2021/06/26 00:23:27;;;;;;;26.33;23.13;;;;;;;13.72;92.88;101707.78;1048621;28;20516;-85
2021/06/26 00:24:18;;;;;;;28.20;22.58;;;;;;;13.76;92.69;101712.19;1055542;28;20047;-84
2021/06/26 00:24:50;;;;;;;22.25;19.88;;;;;;;13.71;92.20;101714.72;1053605;28;20053;-84
2021/06/26 00:25:23;;;;;;;19.60;17.52;;;;;;;13.65;92.83;101724.16;1052269;28;20044;-85
2021/06/26 00:25:54;;;;;;;21.75;18.35;;;;;;;13.61;92.72;101710.22;1048360;28;20048;-86
2021/06/26 00:26:27;;;;;;;19.40;17.33;;;;;;;13.64;92.64;101718.09;1044030;28;20049;-85
2021/06/26 00:26:58;;;;;;;19.77;17.67;;;;;;;13.65;92.61;101719.84;1044714;28;20053;-85
2021/06/26 00:27:31;;;;;;;20.90;18.02;;;;;;;13.65;92.66;101714.63;1044769;28;20086;-85
2021/06/26 00:28:03;;;;;;;21.52;18.42;;;;;;;13.65;93.00;101708.56;1048976;28;20060;-84
2021/06/26 00:28:35;;;;;;;24.60;18.58;;;;;;;13.65;92.86;101709.44;1047949;28;20060;-85
2021/06/26 00:29:06;;;;;;;18.00;15.23;;;;;;;13.62;92.72;101712.00;1048865;28;20049;-84
2021/06/26 00:29:38;;;;;;;22.42;17.60;;;;;;;13.62;92.58;101713.72;1048167;28;20055;-85
2021/06/26 00:30:12;;;;;;;16.55;14.57;;;;;;;13.63;92.71;101707.66;1048845;28;20547;-84
2021/06/26 00:30:44;;;;;;;22.15;18.30;;;;;;;13.59;92.91;101711.06;1052268;28;20492;-85
2021/06/26 00:31:16;;;;;;;23.48;20.02;;;;;;;13.57;93.12;101713.66;1052274;28;20063;-84
2021/06/26 00:31:47;;;;;;;21.98;17.73;;;;;;;13.57;93.04;101705.84;1048139;28;20059;-85
2021/06/26 00:32:19;;;;;;;21.05;18.65;;;;;;;13.60;92.53;101711.06;1048060;28;20107;-85
2021/06/26 00:32:51;;;;;;;22.63;18.52;;;;;;;13.59;92.58;101718.84;1048119;28;20128;-85
2021/06/26 00:33:22;;;;;;;19.10;17.00;;;;;;;13.57;92.82;101710.16;1043926;28;20177;-84
2021/06/26 00:33:54;;;;;;;20.00;17.00;;;;;;;13.54;92.74;101705.78;1048690;28;20060;-84
2021/06/26 00:34:25;;;;;;;21.60;18.35;;;;;;;13.53;92.52;101704.91;1048335;28;20044;-84
2021/06/26 00:34:57;;;;;;;25.10;19.70;;;;;;;13.55;92.78;101702.31;1049284;28;20051;-84
2021/06/26 00:35:28;;;;;;;21.42;19.15;;;;;;;13.56;92.54;101717.09;1048414;28;20052;-84
2021/06/26 00:36:00;;;;;;;19.75;17.65;;;;;;;13.47;92.72;101699.59;1045007;28;20064;-85
2021/06/26 00:36:31;;;;;;;20.65;17.40;;;;;;;13.47;92.96;101709.13;1045410;28;20052;-85
2021/06/26 00:37:03;;;;;;;20.92;18.77;;;;;;;13.46;93.12;101718.66;1051876;28;20475;-85
2021/06/26 00:37:34;;;;;;;19.67;17.55;;;;;;;13.47;92.82;101704.81;1048971;28;20083;-85
2021/06/26 00:38:06;;;;;;;21.38;17.48;;;;;;;13.49;92.37;101704.81;1044794;28;20420;-85
2021/06/26 00:38:38;;;;;;;21.30;17.63;;;;;;;13.49;92.49;101707.41;1043586;28;20060;-85
2021/06/26 00:39:09;;;;;;;20.52;17.90;;;;;;;13.47;92.71;101714.34;1045408;28;20052;-85
2021/06/26 00:39:41;;;;;;;20.20;16.85;;;;;;;13.46;92.43;101712.59;1044903;28;20045;-85
2021/06/26 00:40:13;;;;;;;21.73;18.27;;;;;;;13.43;92.52;101713.41;1045344;28;20060;-85
2021/06/26 00:40:45;;;;;;;18.08;16.08;;;;;;;13.47;92.53;101710.00;1049412;28;20063;-85
2021/06/26 00:41:16;;;;;;;19.63;16.30;;;;;;;13.46;92.43;101710.88;1053197;28;20054;-85
2021/06/26 00:41:48;;;;;;;20.10;17.73;;;;;;;13.43;92.46;101713.41;1053506;28;20400;-85
2021/06/26 00:42:19;;;;;;;20.60;18.40;;;;;;;13.39;92.36;101711.63;1053441;28;20048;-85
2021/06/26 00:42:51;;;;;;;19.67;16.50;;;;;;;13.37;92.29;101707.22;1053114;28;20423;-85
2021/06/26 00:43:22;;;;;;;20.17;18.02;;;;;;;13.36;92.73;101711.53;1053061;28;20052;-85
2021/06/26 00:43:53;;;;;;;20.88;18.60;;;;;;;13.36;92.84;101708.94;1049079;28;20472;-85
2021/06/26 00:44:28;;;;;;;21.90;19.55;;;;;;;13.37;92.67;101699.41;1049377;28;20062;-84
2021/06/26 00:45:00;;;;;;;24.02;20.98;;;;;;;13.37;92.74;101708.09;1053200;28;20131;-86
2021/06/26 00:45:32;;;;;;;24.48;20.48;;;;;;;13.37;92.44;101702.88;1053089;28;20062;-85
2021/06/26 00:46:03;;;;;;;24.95;20.73;;;;;;;13.36;92.74;101702.88;1053298;28;20123;-85
2021/06/26 00:46:36;;;;;;;32.65;24.00;;;;;;;13.37;92.56;101704.63;1048988;28;20488;-84
2021/06/26 00:47:12;;;;;;;26.67;23.77;;;;;;;13.35;93.12;101699.41;1044956;28;20175;-85
2021/06/26 00:47:44;;;;;;;25.08;21.75;;;;;;;13.32;93.09;101707.13;1041940;28;20343;-85
2021/06/26 00:48:16;;;;;;;22.65;20.17;;;;;;;13.28;92.89;101707.94;1044791;28;20053;-84
2021/06/26 00:48:48;;;;;;;23.35;20.10;;;;;;;13.29;93.03;101707.09;1046168;28;20052;-85
2021/06/26 00:49:19;;;;;;;23.10;20.33;;;;;;;13.25;93.09;101700.97;1049042;28;20489;-85
2021/06/26 00:49:51;;;;;;;23.40;20.38;;;;;;;13.28;92.57;101705.34;1048793;28;20048;-84
2021/06/26 00:50:27;;;;;;;21.05;18.88;;;;;;;13.29;92.48;101694.09;1049038;28;20068;-85
2021/06/26 00:51:00;;;;;;;21.60;19.30;;;;;;;13.30;92.76;101700.19;1044810;28;20540;-84
2021/06/26 00:51:32;;;;;;;29.52;22.25;;;;;;;13.34;92.26;101700.25;1046068;28;20045;-85
2021/06/26 00:52:04;;;;;;;23.42;19.33;;;;;;;13.35;92.35;101704.59;1048722;28;20049;-85
2021/06/26 00:52:35;;;;;;;24.50;21.08;;;;;;;13.28;91.82;101696.69;1049871;28;20052;-85
2021/06/26 00:53:07;;;;;;;23.95;21.35;;;;;;;13.31;92.09;101708.00;1049011;28;20060;-85
2021/06/26 00:53:38;;;;;;;24.23;20.50;;;;;;;13.32;92.13;101704.53;1045364;28;20060;-85
2021/06/26 00:54:10;;;;;;;23.27;20.45;;;;;;;13.31;92.02;101705.38;1044816;28;20049;-85
2021/06/26 00:54:41;;;;;;;20.27;18.08;;;;;;;13.29;92.45;101699.31;1045118;28;20773;-85
2021/06/26 00:55:14;;;;;;;25.90;20.55;;;;;;;13.26;92.53;101700.09;1049490;28;20049;-86
2021/06/26 00:55:52;;;;;;;25.98;20.63;;;;;;;13.27;92.14;101700.97;1053020;28;20056;-85
2021/06/26 00:56:25;;;;;;;21.48;19.17;;;;;;;13.30;92.24;101701.03;1050310;28;20117;-84
2021/06/26 00:57:13;;;;;;;21.17;18.75;;;;;;;13.30;91.82;101695.84;1044768;28;20053;-85
2021/06/26 00:57:48;;;;;;;23.88;20.17;;;;;;;13.29;91.84;101701.91;1041780;28;20053;-85
2021/06/26 00:58:24;;;;;;;22.58;19.63;;;;;;;13.32;92.14;101698.47;1044073;28;20049;-85
2021/06/26 00:58:56;;;;;;;28.83;21.20;;;;;;;13.35;92.28;101698.53;1048532;28;20048;-85
2021/06/26 00:59:28;;;;;;;26.77;21.33;;;;;;;13.36;92.31;101697.69;1050355;28;20049;-85
2021/06/26 01:00:04;;;;;;;22.35;19.95;;;;;;;13.36;92.60;101698.56;1054316;28;20051;-85
2021/06/26 01:00:36;;;;;;;26.77;21.73;;;;;;;13.33;92.59;101697.59;1053022;28;20063;-85
2021/06/26 01:01:09;;;;;;;24.30;21.30;;;;;;;13.33;92.39;101702.81;1048739;28;20139;-85
2021/06/26 01:01:40;;;;;;;23.85;20.25;;;;;;;13.32;91.95;101704.53;1048937;28;20053;-85
2021/06/26 01:02:12;;;;;;;29.65;20.60;;;;;;;13.28;92.20;101707.94;1045481;28;20053;-84
2021/06/26 01:02:44;;;;;;;24.70;20.65;;;;;;;13.22;92.52;101698.31;1048898;28;20055;-85
2021/06/26 01:03:16;;;;;;;22.55;20.17;;;;;;;13.23;92.23;101702.66;1048892;28;20059;-85
2021/06/26 01:03:47;;;;;;;20.88;18.15;;;;;;;13.25;92.05;101703.56;1045231;28;20056;-85
2021/06/26 01:04:19;;;;;;;25.15;20.42;;;;;;;13.28;91.75;101707.94;1049415;28;20509;-85
2021/06/26 01:04:50;;;;;;;26.15;21.05;;;;;;;13.26;91.75;101704.44;1048881;28;20060;-85
2021/06/26 01:05:22;;;;;;;22.80;19.48;;;;;;;13.26;92.03;101710.50;1049509;28;20044;-84
2021/06/26 01:05:54;;;;;;;24.50;19.35;;;;;;;13.27;91.51;101711.38;1053098;28;20059;-85
2021/06/26 01:06:25;;;;;;;24.45;19.95;;;;;;;13.23;92.20;101699.19;1053109;28;20391;-85
2021/06/26 01:06:57;;;;;;;23.05;19.17;;;;;;;13.22;92.54;101708.72;1053077;28;20056;-84
2021/06/26 01:07:29;;;;;;;24.60;18.98;;;;;;;13.21;92.20;101714.72;1053094;28;20414;-85
2021/06/26 01:08:00;;;;;;;24.05;19.73;;;;;;;13.22;92.43;101707.84;1053172;28;20051;-85
2021/06/26 01:08:32;;;;;;;24.60;20.30;;;;;;;13.18;92.11;101708.59;1052945;28;20419;-85
2021/06/26 01:09:03;;;;;;;23.73;19.25;;;;;;;13.21;92.60;101708.66;1052995;28;20500;-86
2021/06/26 01:09:35;;;;;;;22.85;18.92;;;;;;;13.15;92.46;101705.94;1053314;28;20052;-84
2021/06/26 01:10:08;;;;;;;23.27;19.98;;;;;;;13.15;92.47;101699.00;1053515;28;20054;-84
2021/06/26 01:10:40;;;;;;;22.90;20.50;;;;;;;13.20;92.92;101712.09;1052972;28;20048;-85
2021/06/26 01:11:11;;;;;;;23.73;20.60;;;;;;;13.19;92.55;101707.75;1049021;28;20049;-85
2021/06/26 01:11:43;;;;;;;22.02;19.23;;;;;;;13.17;92.72;101709.44;1044846;28;20071;-85
2021/06/26 01:12:14;;;;;;;24.05;19.92;;;;;;;13.18;92.86;101706.00;1041131;28;20478;-84
2021/06/26 01:12:46;;;;;;;20.33;18.23;;;;;;;13.14;93.16;101710.25;1041055;28;20045;-85
2021/06/26 01:13:18;;;;;;;23.40;20.90;;;;;;;13.16;92.74;101707.66;1041256;28;20512;-84
2021/06/26 01:13:49;;;;;;;22.75;19.90;;;;;;;13.16;92.47;101715.47;1044738;28;20432;-84
2021/06/26 01:14:21;;;;;;;23.73;20.60;;;;;;;13.17;92.59;101712.03;1041213;28;20089;-85
2021/06/26 01:14:52;;;;;;;21.60;19.08;;;;;;;13.14;92.63;101707.66;1045033;28;20063;-85
2021/06/26 01:15:27;;;;;;;22.40;18.15;;;;;;;13.14;92.26;101702.47;1045246;28;20071;-85
2021/06/26 01:15:58;;;;;;;22.92;19.95;;;;;;;13.12;92.41;101701.56;1049647;28;20139;-84
2021/06/26 01:16:30;;;;;;;24.00;18.17;;;;;;;13.16;92.53;101700.78;1052988;28;20157;-85
2021/06/26 01:17:06;;;;;;;23.98;20.27;;;;;;;13.12;92.26;101700.69;1052984;28;20044;-85
2021/06/26 01:17:38;;;;;;;30.52;21.17;;;;;;;13.16;92.67;101708.56;1053301;28;20415;-84
2021/06/26 01:18:10;;;;;;;23.13;20.25;;;;;;;13.16;92.40;101699.88;1053106;28;20076;-84
2021/06/26 01:18:41;;;;;;;24.35;20.88;;;;;;;13.22;92.27;101705.25;1053033;28;20048;-85
2021/06/26 01:19:13;;;;;;;28.42;24.15;;;;;;;13.19;92.41;101703.41;1048827;28;20044;-84
2021/06/26 01:19:44;;;;;;;30.20;24.00;;;;;;;13.21;91.96;101699.16;1045218;28;20048;-85
2021/06/26 01:20:17;;;;;;;28.75;22.85;;;;;;;13.23;92.58;101715.66;1048865;28;20048;-85
2021/06/26 01:20:48;;;;;;;25.42;21.85;;;;;;;13.20;91.68;101702.56;1049368;28;20078;-84
2021/06/26 01:21:20;;;;;;;28.25;22.27;;;;;;;13.28;92.14;101709.69;1052968;28;20052;-84
2021/06/26 01:21:54;;;;;;;28.63;24.63;;;;;;;13.31;92.08;101707.13;1048892;28;20376;-85
2021/06/26 01:22:30;;;;;;;30.60;24.48;;;;;;;13.30;92.25;101702.78;1045525;28;20056;-85
2021/06/26 01:23:02;;;;;;;27.75;22.77;;;;;;;13.26;92.64;101709.63;1048875;28;20051;-85
2021/06/26 01:23:33;;;;;;;29.98;23.75;;;;;;;13.26;91.86;101707.03;1044561;28;20600;-84
2021/06/26 01:24:05;;;;;;;28.60;23.73;;;;;;;13.23;92.67;101712.19;1041646;28;20063;-84
2021/06/26 01:24:37;;;;;;;26.70;23.88;;;;;;;13.18;92.80;101712.06;1041198;28;20045;-85
2021/06/26 01:25:14;;;;;;;26.38;22.35;;;;;;;13.17;93.10;101712.03;1045247;28;20377;-84
2021/06/26 01:25:46;;;;;;;30.33;26.17;;;;;;;13.14;93.38;101709.38;1050383;28;20531;-84
2021/06/26 01:26:20;;;;;;;27.02;22.88;;;;;;;13.12;93.29;101706.75;1048892;28;20106;-85
2021/06/26 01:26:57;;;;;;;26.77;22.52;;;;;;;13.09;92.66;101706.69;1048831;28;20048;-85
2021/06/26 01:27:28;;;;;;;28.42;23.65;;;;;;;13.15;92.83;101713.72;1048830;28;20053;-85
2021/06/26 01:28:03;;;;;;;32.45;24.42;;;;;;;13.15;92.90;101711.13;1044681;28;20053;-85
2021/06/26 01:28:35;;;;;;;26.45;21.20;;;;;;;13.11;92.52;101709.34;1044714;28;20060;-85
2021/06/26 01:29:10;;;;;;;21.67;19.20;;;;;;;13.14;92.68;101711.97;1041494;28;20486;-85
2021/06/26 01:29:47;;;;;;;29.00;23.02;;;;;;;13.16;92.75;101710.28;1045905;28;20049;-85
2021/06/26 01:30:27;;;;;;;27.63;22.48;;;;;;;13.15;92.68;101708.53;1048775;28;20052;-84
2021/06/26 01:30:58;;;;;;;26.33;22.35;;;;;;;13.12;92.97;101708.50;1051661;28;20496;-85
2021/06/26 01:31:30;;;;;;;29.75;23.05;;;;;;;13.10;92.90;101705.84;1048714;28;20060;-84
2021/06/26 01:32:05;;;;;;;25.10;21.15;;;;;;;13.10;93.11;101707.56;1046225;28;20475;-85
2021/06/26 01:32:38;;;;;;;22.02;19.67;;;;;;;13.09;92.72;101705.81;1044563;28;20049;-84
2021/06/26 01:33:10;;;;;;;22.33;18.52;;;;;;;13.08;92.32;101710.13;1045790;28;20056;-84
2021/06/26 01:33:41;;;;;;;22.40;20.00;;;;;;;13.09;92.64;101711.88;1049710;28;20428;-85
2021/06/26 01:34:13;;;;;;;22.17;19.17;;;;;;;13.08;92.86;101720.53;1049453;28;20405;-85
2021/06/26 01:34:44;;;;;;;25.15;21.00;;;;;;;13.03;92.82;101706.56;1048739;28;20063;-85
2021/06/26 01:35:16;;;;;;;22.85;18.92;;;;;;;12.98;92.88;101706.47;1044517;28;20052;-84
2021/06/26 01:35:48;;;;;;;22.67;18.50;;;;;;;12.99;92.99;101713.47;1045137;28;20041;-85
2021/06/26 01:36:20;;;;;;;24.13;20.15;;;;;;;12.99;93.18;101715.19;1045244;28;20127;-84
2021/06/26 01:36:51;;;;;;;21.58;18.02;;;;;;;13.00;93.00;101716.94;1048714;28;20508;-85
2021/06/26 01:37:23;;;;;;;23.55;18.88;;;;;;;12.98;92.85;101713.41;1048887;28;20045;-85
2021/06/26 01:37:56;;;;;;;23.35;19.50;;;;;;;12.97;93.31;101717.72;1048711;28;20064;-85
2021/06/26 01:38:28;;;;;;;20.65;17.70;;;;;;;12.95;93.06;101710.78;1051525;28;20055;-85
2021/06/26 01:38:59;;;;;;;22.85;19.90;;;;;;;12.93;92.69;101709.84;1053268;28;20051;-85
2021/06/26 01:39:31;;;;;;;23.85;20.77;;;;;;;12.96;92.54;101709.91;1053219;28;20488;-85
2021/06/26 01:40:03;;;;;;;25.73;22.00;;;;;;;12.94;92.63;101707.28;1052764;28;20048;-85
2021/06/26 01:40:34;;;;;;;24.95;21.52;;;;;;;12.97;92.69;101711.66;1052943;28;20059;-85
2021/06/26 01:41:06;;;;;;;23.60;19.13;;;;;;;12.95;92.95;101705.56;1052990;28;20131;-85
2021/06/26 01:41:38;;;;;;;26.23;22.33;;;;;;;12.93;93.18;101710.75;1049094;28;20056;-84
2021/06/26 01:42:10;;;;;;;27.15;22.13;;;;;;;12.93;93.08;101715.94;1052907;28;20127;-84
2021/06/26 01:42:42;;;;;;;24.00;21.45;;;;;;;12.89;92.55;101708.94;1053029;28;20047;-85
2021/06/26 01:43:14;;;;;;;23.15;20.25;;;;;;;12.88;92.99;101707.19;1052914;28;20044;-85
2021/06/26 01:43:45;;;;;;;25.48;21.95;;;;;;;12.89;92.72;101708.94;1048681;28;20057;-84
2021/06/26 01:44:17;;;;;;;25.73;20.42;;;;;;;12.91;92.89;101706.34;1048751;28;20067;-85
2021/06/26 01:44:48;;;;;;;28.48;23.45;;;;;;;12.90;93.07;101707.22;1045083;28;20048;-85
2021/06/26 01:45:22;;;;;;;28.40;23.38;;;;;;;12.88;93.10;101711.50;1049412;28;20598;-84
2021/06/26 01:45:53;;;;;;;28.20;22.38;;;;;;;12.85;93.41;101714.91;1048524;28;20424;-85
2021/06/26 01:46:25;;;;;;;24.70;21.80;;;;;;;12.87;93.38;101713.19;1048024;28;20102;-85
2021/06/26 01:46:56;;;;;;;24.17;20.10;;;;;;;12.88;93.10;101709.78;1048774;28;20055;-85
2021/06/26 01:47:28;;;;;;;23.85;21.27;;;;;;;12.88;93.10;101716.69;1044708;28;20056;-85
2021/06/26 01:47:59;;;;;;;24.92;20.95;;;;;;;12.82;93.07;101714.84;1045159;28;20116;-85
2021/06/26 01:48:31;;;;;;;23.08;19.50;;;;;;;12.85;93.05;101717.50;1044970;28;20405;-84
2021/06/26 01:49:10;;;;;;;21.67;18.98;;;;;;;12.83;92.94;101713.13;1044989;28;20059;-84
2021/06/26 01:49:41;;;;;;;23.90;18.60;;;;;;;12.83;92.59;101710.53;1044452;28;20636;-84
2021/06/26 01:50:15;;;;;;;23.70;19.92;;;;;;;12.82;92.66;101711.34;1046115;28;20413;-85
2021/06/26 01:50:46;;;;;;;23.80;19.77;;;;;;;12.83;92.35;101710.53;1046244;28;20052;-85
2021/06/26 01:51:18;;;;;;;22.88;18.77;;;;;;;12.89;92.36;101721.91;1044467;28;20049;-86
2021/06/26 01:51:50;;;;;;;23.10;19.42;;;;;;;12.87;92.40;101712.31;1040376;28;20046;-85
2021/06/26 01:52:21;;;;;;;23.02;17.60;;;;;;;12.81;91.85;101712.22;1036957;28;20053;-85
2021/06/26 01:52:53;;;;;;;19.30;17.17;;;;;;;12.87;92.13;101720.13;1038048;28;20045;-85
2021/06/26 01:53:24;;;;;;;20.08;16.85;;;;;;;12.90;91.90;101715.00;1044903;28;20548;-85
2021/06/26 01:53:56;;;;;;;18.55;16.52;;;;;;;12.89;92.36;101727.09;1049040;28;20106;-84
2021/06/26 01:54:27;;;;;;;19.20;16.95;;;;;;;12.91;91.74;101721.94;1048700;28;20063;-85
2021/06/26 01:54:59;;;;;;;21.70;17.88;;;;;;;12.91;92.38;101733.19;1044840;28;20053;-85
2021/06/26 01:55:30;;;;;;;19.95;16.75;;;;;;;12.84;92.42;101723.53;1044598;28;20103;-85
2021/06/26 01:56:02;;;;;;;22.35;18.30;;;;;;;12.85;92.86;101727.88;1045071;28;20421;-85
2021/06/26 01:56:33;;;;;;;21.23;18.70;;;;;;;12.84;92.69;101726.13;1044832;28;20599;-85
2021/06/26 01:57:07;;;;;;;21.85;18.33;;;;;;;12.85;92.35;101733.06;1049131;28;20052;-85
2021/06/26 01:57:43;;;;;;;23.77;18.55;;;;;;;12.86;92.57;101732.22;1052756;28;20047;-85
2021/06/26 01:58:15;;;;;;;21.00;17.80;;;;;;;12.84;92.53;101733.94;1048741;28;20055;-85
2021/06/26 01:58:46;;;;;;;23.42;19.23;;;;;;;12.77;92.91;101733.78;1046029;28;20048;-85
2021/06/26 01:59:18;;;;;;;26.63;21.52;;;;;;;12.77;92.91;101733.78;1048646;28;20044;-85
2021/06/26 01:59:49;;;;;;;25.45;21.02;;;;;;;12.76;93.52;101734.59;1049253;28;20055;-85
2021/06/26 02:00:24;;;;;;;23.25;18.67;;;;;;;12.76;92.81;101732.88;1049238;28;20053;-85
2021/06/26 02:00:55;;;;;;;23.85;19.98;;;;;;;12.72;93.24;101737.16;1052568;28;20059;-84
2021/06/26 02:01:27;;;;;;;21.52;17.05;;;;;;;12.67;93.29;101736.19;1048783;28;20060;-85
2021/06/26 02:01:59;;;;;;;19.95;17.77;;;;;;;12.65;93.69;101734.38;1044567;28;20049;-85
2021/06/26 02:02:30;;;;;;;24.02;20.00;;;;;;;12.65;93.57;101736.97;1040966;28;20505;-85
2021/06/26 02:03:02;;;;;;;27.80;20.98;;;;;;;12.65;93.71;101734.38;1045042;28;20053;-84
2021/06/26 02:03:33;;;;;;;25.70;20.92;;;;;;;12.66;93.71;101738.75;1044968;28;20505;-84
2021/06/26 02:04:05;;;;;;;24.60;19.85;;;;;;;12.64;93.81;101735.22;1048863;28;20060;-84
2021/06/26 02:04:36;;;;;;;28.25;22.13;;;;;;;12.61;93.86;101738.66;1048753;28;20052;-84
2021/06/26 02:05:10;;;;;;;23.25;20.45;;;;;;;12.62;93.96;101734.34;1044968;28;20056;-84
2021/06/26 02:05:41;;;;;;;24.02;19.77;;;;;;;12.62;93.95;101734.34;1048557;28;20056;-85
2021/06/26 02:06:13;;;;;;;22.55;20.10;;;;;;;12.62;94.10;101734.34;1049547;28;20135;-85
2021/06/26 02:06:45;;;;;;;22.50;19.38;;;;;;;12.57;94.06;101743.75;1049383;28;20060;-85
2021/06/26 02:07:16;;;;;;;24.10;20.67;;;;;;;12.60;94.05;101734.31;1048674;28;20052;-85
2021/06/26 02:07:48;;;;;;;23.25;20.25;;;;;;;12.57;93.69;101742.03;1044625;28;20056;-86
2021/06/26 02:08:22;;;;;;;22.25;17.77;;;;;;;12.55;93.82;101740.25;1044976;28;20045;-85
2021/06/26 02:08:54;;;;;;;23.40;20.00;;;;;;;12.53;93.91;101736.72;1048707;28;20510;-84
2021/06/26 02:09:25;;;;;;;24.60;20.90;;;;;;;12.55;93.94;101745.44;1045309;28;20497;-84
2021/06/26 02:09:57;;;;;;;26.98;19.65;;;;;;;12.58;93.55;101745.50;1049456;28;20048;-85
2021/06/26 02:10:29;;;;;;;27.33;22.20;;;;;;;12.59;93.45;101739.44;1052804;28;20075;-85
2021/06/26 02:11:01;;;;;;;23.92;20.88;;;;;;;12.57;93.91;101736.84;1049317;28;20051;-85
2021/06/26 02:11:34;;;;;;;25.00;22.33;;;;;;;12.63;93.77;101733.50;1052831;28;20315;-85
2021/06/26 02:12:06;;;;;;;25.20;20.27;;;;;;;12.63;93.25;101733.50;1048638;28;20515;-86
2021/06/26 02:12:37;;;;;;;26.90;21.80;;;;;;;12.63;93.45;101738.69;1049323;28;20053;-85
2021/06/26 02:13:11;;;;;;;28.90;22.70;;;;;;;12.62;93.22;101739.53;1052781;28;20457;-85
2021/06/26 02:13:43;;;;;;;24.20;21.02;;;;;;;12.65;93.09;101739.56;1049396;28;20165;-85
2021/06/26 02:14:15;;;;;;;33.45;22.08;;;;;;;12.66;93.49;101729.25;1052856;28;20055;-84
2021/06/26 02:14:46;;;;;;;23.67;20.77;;;;;;;12.67;93.43;101740.50;1053003;28;20169;-84
2021/06/26 02:15:18;;;;;;;27.30;20.20;;;;;;;12.66;93.27;101737.03;1049203;28;20059;-85
2021/06/26 02:15:49;;;;;;;22.90;19.30;;;;;;;12.62;93.27;101744.72;1048440;28;20062;-85
2021/06/26 02:16:21;;;;;;;24.63;20.33;;;;;;;12.65;93.71;101736.97;1044532;28;20059;-85
2021/06/26 02:16:53;;;;;;;21.83;19.48;;;;;;;12.63;93.56;101739.56;1045027;28;20458;-85
2021/06/26 02:17:24;;;;;;;26.17;20.65;;;;;;;12.68;93.80;101737.94;1049207;28;20048;-85
2021/06/26 02:17:56;;;;;;;23.80;20.75;;;;;;;12.69;93.79;101744.00;1052906;28;20055;-85
2021/06/26 02:18:28;;;;;;;25.70;21.08;;;;;;;12.69;93.97;101737.06;1052741;28;20063;-85
2021/06/26 02:18:59;;;;;;;25.40;21.90;;;;;;;12.66;94.04;101742.22;1052683;28;20508;-85
2021/06/26 02:19:31;;;;;;;26.48;21.63;;;;;;;12.67;93.61;101736.19;1052773;28;20059;-85
2021/06/26 02:20:07;;;;;;;24.05;20.17;;;;;;;12.69;93.55;101741.41;1052893;28;20055;-86
2021/06/26 02:20:39;;;;;;;26.27;19.08;;;;;;;12.64;93.18;101741.31;1053173;28;20435;-85
2021/06/26 02:21:10;;;;;;;22.48;19.00;;;;;;;12.67;93.09;101738.78;1052922;28;20181;-85
2021/06/26 02:21:42;;;;;;;21.20;18.90;;;;;;;12.67;92.88;101735.31;1048718;28;20049;-85
2021/06/26 02:22:15;;;;;;;24.30;19.30;;;;;;;12.67;92.99;101725.81;1048602;28;20451;-85
2021/06/26 02:22:46;;;;;;;25.70;20.27;;;;;;;12.69;93.08;101726.69;1049159;28;20059;-85
2021/06/26 02:23:18;;;;;;;26.00;20.27;;;;;;;12.69;93.02;101728.41;1049386;28;20053;-85
2021/06/26 02:23:50;;;;;;;24.20;20.10;;;;;;;12.69;92.80;101734.47;1052714;28;20113;-85
2021/06/26 02:24:21;;;;;;;21.38;19.02;;;;;;;12.65;92.74;101727.50;1052701;28;20052;-85
2021/06/26 02:24:53;;;;;;;23.08;19.40;;;;;;;12.61;92.81;101730.00;1052700;28;20048;-85
2021/06/26 02:25:25;;;;;;;21.40;17.48;;;;;;;12.58;92.85;101730.78;1048583;28;20555;-85
2021/06/26 02:25:56;;;;;;;25.27;19.92;;;;;;;12.60;92.86;101736.91;1044973;28;20045;-84
2021/06/26 02:26:28;;;;;;;22.35;19.20;;;;;;;12.65;92.83;101729.19;1048611;28;20052;-85